Time;durP1;ratioP1;P1;durP2;ratioP2;P2;SDS_P1;SDS_P2;PMS_P1;PMS_P2;Temp;Humidity;BMP_temperature;BMP_pressure;BME280_temperature;BME280_humidity;BME280_pressure;Samples;Min_cycle;Max_cycle;Signal;HPM_P1;HPM_P2
2023/04/13 00:00:52;;;;;;;;;;;10.40;61.60;;;;;;5031162;28;20324;-60
2023/04/13 00:03:18;;;;;;;;;;;10.50;61.90;;;;;;5030065;28;19921;-60
2023/04/13 00:05:44;;;;;;;;;;;10.50;61.80;;;;;;5031822;28;20265;-60
2023/04/13 00:08:10;;;;;;;;;;;10.50;61.90;;;;;;5030228;28;19942;-59
2023/04/13 00:10:35;;;;;;;;;;;10.50;61.90;;;;;;5031322;28;19917;-60
2023/04/13 00:13:02;;;;;;;;;;;10.50;61.80;;;;;;5031392;28;19967;-60
2023/04/13 00:15:27;;;;;;;;;;;10.50;61.90;;;;;;5031408;28;19920;-60
2023/04/13 00:17:53;;;;;;;;;;;10.50;61.80;;;;;;5031128;28;19913;-60
2023/04/13 00:20:18;;;;;;;;;;;10.60;61.70;;;;;;5017372;28;20436;-60
2023/04/13 00:22:45;;;;;;;;;;;10.60;61.60;;;;;;5011856;28;19937;-59
2023/04/13 00:25:11;;;;;;;;;;;10.60;61.50;;;;;;5018250;28;20432;-59
2023/04/13 00:27:38;;;;;;;;;;;10.60;61.30;;;;;;5031046;28;19913;-60
2023/04/13 00:30:07;;;;;;;;;;;10.50;61.20;;;;;;5030963;28;20424;-59
2023/04/13 00:32:32;;;;;;;;;;;10.50;61.30;;;;;;5029734;28;19917;-59
2023/04/13 00:34:58;;;;;;;;;;;10.50;61.30;;;;;;5035442;28;20300;-60
2023/04/13 00:37:23;;;;;;;;;;;10.50;61.00;;;;;;5044217;28;20047;-60
2023/04/13 00:39:50;;;;;;;;;;;10.40;61.10;;;;;;5031183;28;19921;-60
2023/04/13 00:42:17;;;;;;;;;;;10.40;61.40;;;;;;5031504;28;19917;-59
2023/04/13 00:44:43;;;;;;;;;;;10.40;61.50;;;;;;5030987;28;19913;-60
2023/04/13 00:47:08;;;;;;;;;;;10.50;61.40;;;;;;5030983;28;19928;-59
2023/04/13 00:49:34;;;;;;;;;;;10.50;61.50;;;;;;5030916;28;20008;-64
2023/04/13 00:52:02;;;;;;;;;;;10.50;61.50;;;;;;5029569;28;19909;-60
2023/04/13 00:54:28;;;;;;;;;;;10.50;61.50;;;;;;5030999;28;19913;-60
2023/04/13 00:56:55;;;;;;;;;;;10.50;61.40;;;;;;5030976;28;19975;-60
2023/04/13 00:59:21;;;;;;;;;;;10.50;61.20;;;;;;5031129;28;20106;-60
2023/04/13 01:01:49;;;;;;;;;;;10.40;61.30;;;;;;5031068;28;19909;-60
2023/04/13 01:04:17;;;;;;;;;;;10.40;61.00;;;;;;5031245;28;19918;-63
2023/04/13 01:06:50;;;;;;;;;;;10.40;61.20;;;;;;5030750;28;19913;-62
2023/04/13 01:09:19;;;;;;;;;;;10.40;61.10;;;;;;5031105;28;19967;-60
2023/04/13 01:11:51;;;;;;;;;;;10.40;61.10;;;;;;5033459;28;20005;-60
2023/04/13 01:14:22;;;;;;;;;;;10.30;61.10;;;;;;5034611;28;19925;-60
2023/04/13 01:16:53;;;;;;;;;;;10.30;60.90;;;;;;5034230;28;20306;-60
2023/04/13 01:19:30;;;;;;;;;;;10.30;61.20;;;;;;5034157;28;19917;-60
2023/04/13 01:21:56;;;;;;;;;;;10.40;61.50;;;;;;5034250;28;19953;-59
2023/04/13 01:24:31;;;;;;;;;;;10.40;61.00;;;;;;5034268;28;19920;-59
2023/04/13 01:27:06;;;;;;;;;;;10.30;60.80;;;;;;5034129;28;19913;-59
2023/04/13 01:29:32;;;;;;;;;;;10.30;60.70;;;;;;5034634;28;19963;-59
2023/04/13 01:31:58;;;;;;;;;;;10.30;61.10;;;;;;5034219;28;19909;-59
2023/04/13 01:34:23;;;;;;;;;;;10.40;61.40;;;;;;5033893;28;19928;-59
2023/04/13 01:36:49;;;;;;;;;;;10.40;61.50;;;;;;5053665;28;19908;-59
2023/04/13 01:39:18;;;;;;;;;;;10.40;61.70;;;;;;5053733;28;20391;-59
2023/04/13 01:41:44;;;;;;;;;;;10.50;62.00;;;;;;5053576;28;19917;-59
2023/04/13 01:44:10;;;;;;;;;;;10.50;61.70;;;;;;5053950;28;19919;-59
2023/04/13 01:46:39;;;;;;;;;;;10.50;61.80;;;;;;5052143;28;19912;-59
2023/04/13 01:49:06;;;;;;;;;;;10.60;61.70;;;;;;5054088;28;19917;-60
2023/04/13 01:51:33;;;;;;;;;;;10.60;61.60;;;;;;5053609;28;19912;-59
2023/04/13 01:54:01;;;;;;;;;;;10.60;61.40;;;;;;5053581;28;20432;-59
2023/04/13 01:56:27;;;;;;;;;;;10.70;61.30;;;;;;5053435;28;20308;-59
2023/04/13 01:58:56;;;;;;;;;;;10.60;61.50;;;;;;5053625;28;19962;-59
2023/04/13 02:01:22;;;;;;;;;;;10.70;61.40;;;;;;5053438;28;19966;-59
2023/04/13 02:03:48;;;;;;;;;;;10.70;61.60;;;;;;5053542;28;19948;-60
2023/04/13 02:06:14;;;;;;;;;;;10.70;61.70;;;;;;5053164;28;20436;-59
2023/04/13 02:08:40;;;;;;;;;;;10.80;61.70;;;;;;5053607;28;20261;-59
2023/04/13 02:11:06;;;;;;;;;;;10.80;61.70;;;;;;5053408;28;19925;-59
2023/04/13 02:13:33;;;;;;;;;;;10.80;61.40;;;;;;5049604;28;19974;-59
2023/04/13 02:15:58;;;;;;;;;;;10.90;61.70;;;;;;5033370;28;19913;-60
2023/04/13 02:18:24;;;;;;;;;;;10.90;61.80;;;;;;5033448;28;19917;-59
2023/04/13 02:21:10;;;;;;;;;;;11.00;61.80;;;;;;5032993;28;19919;-59
2023/04/13 02:23:35;;;;;;;;;;;11.00;62.00;;;;;;5032515;28;20356;-59
2023/04/13 02:26:01;;;;;;;;;;;11.00;62.70;;;;;;5032824;28;20295;-59
2023/04/13 02:28:28;;;;;;;;;;;11.20;62.80;;;;;;5032904;28;20369;-59
2023/04/13 02:30:54;;;;;;;;;;;11.20;63.20;;;;;;5032784;28;19913;-59
2023/04/13 02:33:20;;;;;;;;;;;11.30;63.10;;;;;;5033135;28;20411;-59
2023/04/13 02:35:48;;;;;;;;;;;11.30;63.00;;;;;;5043645;28;19913;-60
2023/04/13 02:38:14;;;;;;;;;;;11.30;63.00;;;;;;5052809;28;19923;-58
2023/04/13 02:40:41;;;;;;;;;;;11.30;63.20;;;;;;5052783;28;20264;-60
2023/04/13 02:43:07;;;;;;;;;;;11.30;63.40;;;;;;5052635;28;20257;-59
2023/04/13 02:45:33;;;;;;;;;;;11.30;63.60;;;;;;5050966;28;19970;-59
2023/04/13 02:47:58;;;;;;;;;;;11.30;63.60;;;;;;5052441;28;19909;-59
2023/04/13 02:50:24;;;;;;;;;;;11.30;63.60;;;;;;5052357;28;19928;-62
2023/04/13 02:52:49;;;;;;;;;;;11.40;63.70;;;;;;5052381;28;19913;-60
2023/04/13 02:55:15;;;;;;;;;;;11.40;63.80;;;;;;5052510;28;20387;-59
2023/04/13 02:57:43;;;;;;;;;;;11.40;63.90;;;;;;5052636;28;20435;-59
2023/04/13 03:00:09;;;;;;;;;;;11.50;63.90;;;;;;5052388;28;19960;-61
2023/04/13 03:02:35;;;;;;;;;;;11.50;63.90;;;;;;5052079;28;20372;-60
2023/04/13 03:05:04;;;;;;;;;;;11.60;63.80;;;;;;5051950;28;20349;-60
2023/04/13 03:07:30;;;;;;;;;;;11.60;63.90;;;;;;5052185;28;19958;-60
2023/04/13 03:09:56;;;;;;;;;;;11.60;63.80;;;;;;5051834;28;19916;-60
2023/04/13 03:12:22;;;;;;;;;;;11.60;63.90;;;;;;5052136;28;19916;-60
2023/04/13 03:14:48;;;;;;;;;;;11.60;64.10;;;;;;5037600;28;19925;-59
2023/04/13 03:17:15;;;;;;;;;;;11.60;64.00;;;;;;5032270;28;19932;-59
2023/04/13 03:19:41;;;;;;;;;;;11.70;64.10;;;;;;5032097;28;19917;-59
2023/04/13 03:22:07;;;;;;;;;;;11.70;64.20;;;;;;5031958;28;20328;-59
2023/04/13 03:24:34;;;;;;;;;;;11.80;64.00;;;;;;5031956;28;19924;-60
2023/04/13 03:26:59;;;;;;;;;;;11.80;64.10;;;;;;5031748;28;19909;-60
2023/04/13 03:29:25;;;;;;;;;;;11.90;64.20;;;;;;5031904;28;19980;-60
2023/04/13 03:31:50;;;;;;;;;;;12.00;64.10;;;;;;5032050;28;20258;-60
2023/04/13 03:34:16;;;;;;;;;;;12.10;64.00;;;;;;5032225;28;19968;-60
2023/04/13 03:36:42;;;;;;;;;;;12.10;63.80;;;;;;5050359;28;19921;-59
2023/04/13 03:39:07;;;;;;;;;;;12.10;63.70;;;;;;5051548;28;19917;-60
2023/04/13 03:41:32;;;;;;;;;;;12.20;63.50;;;;;;5045653;28;19923;-60
2023/04/13 03:43:58;;;;;;;;;;;12.20;63.30;;;;;;5031910;28;19913;-60
2023/04/13 03:46:23;;;;;;;;;;;12.20;63.20;;;;;;5031474;28;20032;-60
2023/04/13 03:48:49;;;;;;;;;;;12.20;63.10;;;;;;5032072;28;19913;-60
2023/04/13 03:51:15;;;;;;;;;;;12.20;63.10;;;;;;5031471;28;19944;-60
2023/04/13 03:53:40;;;;;;;;;;;12.20;63.20;;;;;;5031696;28;19921;-59
2023/04/13 03:56:06;;;;;;;;;;;12.10;63.30;;;;;;5031392;28;19924;-59
2023/04/13 03:58:31;;;;;;;;;;;12.30;63.50;;;;;;5031588;28;19919;-60
2023/04/13 04:00:57;;;;;;;;;;;12.30;63.40;;;;;;5031245;28;19936;-60
2023/04/13 04:03:24;;;;;;;;;;;12.30;63.40;;;;;;5031723;28;19999;-63
2023/04/13 04:05:50;;;;;;;;;;;12.40;63.40;;;;;;5031804;28;19920;-60
2023/04/13 04:08:15;;;;;;;;;;;12.40;63.50;;;;;;5031505;28;19913;-60
2023/04/13 04:10:40;;;;;;;;;;;12.50;63.30;;;;;;5031609;28;19948;-60
2023/04/13 04:13:06;;;;;;;;;;;12.50;63.30;;;;;;5031144;28;19921;-60
2023/04/13 04:15:31;;;;;;;;;;;12.50;63.40;;;;;;5031244;28;19920;-60
2023/04/13 04:17:57;;;;;;;;;;;12.50;63.40;;;;;;5031296;28;19991;-61
2023/04/13 04:20:22;;;;;;;;;;;12.50;63.50;;;;;;5031534;28;20407;-61
2023/04/13 04:22:50;;;;;;;;;;;12.60;63.60;;;;;;5031308;28;19940;-60
2023/04/13 04:25:21;;;;;;;;;;;12.60;63.60;;;;;;5031083;28;19967;-60
2023/04/13 04:27:56;;;;;;;;;;;12.70;63.50;;;;;;5031351;28;19913;-59
2023/04/13 04:30:28;;;;;;;;;;;12.80;63.40;;;;;;5031530;28;19996;-60
2023/04/13 04:32:54;;;;;;;;;;;12.80;63.40;;;;;;5031590;28;19917;-60
2023/04/13 04:35:20;;;;;;;;;;;12.80;63.40;;;;;;5038341;28;20244;-60
2023/04/13 04:37:48;;;;;;;;;;;12.90;63.50;;;;;;5051153;28;19932;-60
2023/04/13 04:40:14;;;;;;;;;;;13.00;63.30;;;;;;5050732;28;19925;-60
2023/04/13 04:42:40;;;;;;;;;;;13.00;63.30;;;;;;5051134;28;19931;-60
2023/04/13 04:45:07;;;;;;;;;;;13.00;63.20;;;;;;5051293;28;19966;-60
2023/04/13 04:47:36;;;;;;;;;;;13.10;63.20;;;;;;5055260;28;20007;-61
2023/04/13 04:50:02;;;;;;;;;;;13.10;63.20;;;;;;5055125;28;20330;-61
2023/04/13 04:52:28;;;;;;;;;;;13.20;63.20;;;;;;5055185;28;19921;-60
2023/04/13 04:54:53;;;;;;;;;;;13.20;63.30;;;;;;5054921;28;19993;-61
2023/04/13 04:57:19;;;;;;;;;;;13.20;63.30;;;;;;5054638;28;19970;-60
2023/04/13 04:59:44;;;;;;;;;;;13.30;63.20;;;;;;5050966;28;19921;-61
2023/04/13 05:02:10;;;;;;;;;;;13.30;63.20;;;;;;5034348;28;19996;-61
2023/04/13 05:04:36;;;;;;;;;;;13.30;63.20;;;;;;5034419;28;19920;-60
2023/04/13 05:07:01;;;;;;;;;;;13.20;62.90;;;;;;5034302;28;19914;-60
2023/04/13 05:09:27;;;;;;;;;;;13.10;63.00;;;;;;5034519;28;19913;-60
2023/04/13 05:11:52;;;;;;;;;;;13.00;63.10;;;;;;5034165;28;20396;-60
2023/04/13 05:14:18;;;;;;;;;;;13.00;63.00;;;;;;5033902;28;19921;-60
2023/04/13 05:16:43;;;;;;;;;;;12.90;62.70;;;;;;5034121;28;19920;-60
2023/04/13 05:19:09;;;;;;;;;;;12.80;62.90;;;;;;5034400;28;19936;-60
2023/04/13 05:21:35;;;;;;;;;;;12.70;62.80;;;;;;5033906;28;20365;-60
2023/04/13 05:24:01;;;;;;;;;;;12.60;63.00;;;;;;5034436;28;19913;-60
2023/04/13 05:26:27;;;;;;;;;;;12.60;63.20;;;;;;5034148;28;19921;-60
2023/04/13 05:28:53;;;;;;;;;;;12.50;63.30;;;;;;5034365;28;19917;-60
2023/04/13 05:31:19;;;;;;;;;;;12.50;63.70;;;;;;5034069;28;19913;-60
2023/04/13 05:33:45;;;;;;;;;;;12.60;63.80;;;;;;5034311;28;19921;-62
2023/04/13 05:36:10;;;;;;;;;;;12.60;63.70;;;;;;5048113;28;19913;-60
2023/04/13 05:38:36;;;;;;;;;;;12.60;63.80;;;;;;5053653;28;20466;-60
2023/04/13 05:41:02;;;;;;;;;;;12.60;63.70;;;;;;5053764;28;20412;-60
2023/04/13 05:43:27;;;;;;;;;;;12.60;63.80;;;;;;5053970;28;19941;-61
2023/04/13 05:45:53;;;;;;;;;;;12.70;63.70;;;;;;5053648;28;19913;-60
2023/04/13 05:48:18;;;;;;;;;;;12.70;63.90;;;;;;5053376;28;19920;-60
2023/04/13 05:50:44;;;;;;;;;;;12.70;64.00;;;;;;5053739;28;19917;-60
2023/04/13 05:53:09;;;;;;;;;;;12.70;64.00;;;;;;5052192;28;19916;-60
2023/04/13 05:55:35;;;;;;;;;;;12.80;64.10;;;;;;5053901;28;19924;-60
2023/04/13 05:58:02;;;;;;;;;;;12.80;64.10;;;;;;5052272;28;19913;-60
2023/04/13 06:00:28;;;;;;;;;;;12.90;64.30;;;;;;5053476;28;20391;-60
2023/04/13 06:02:54;;;;;;;;;;;12.90;64.20;;;;;;5053048;28;19913;-60
2023/04/13 06:05:21;;;;;;;;;;;13.00;64.10;;;;;;5026459;28;19917;-60
2023/04/13 06:07:46;;;;;;;;;;;13.00;64.00;;;;;;5029340;28;20004;-60
2023/04/13 06:10:14;;;;;;;;;;;13.00;64.10;;;;;;5032448;28;20352;-60
2023/04/13 06:12:40;;;;;;;;;;;13.00;64.10;;;;;;5032572;28;19924;-59
2023/04/13 06:15:05;;;;;;;;;;;13.10;64.30;;;;;;5032373;28;20321;-60
2023/04/13 06:17:31;;;;;;;;;;;13.10;64.20;;;;;;5019819;28;20265;-60
2023/04/13 06:19:56;;;;;;;;;;;13.20;64.30;;;;;;5021555;28;19925;-60
2023/04/13 06:22:22;;;;;;;;;;;13.20;64.30;;;;;;5022759;28;19913;-60
2023/04/13 06:24:50;;;;;;;;;;;13.30;64.20;;;;;;5027437;28;19927;-59
2023/04/13 06:27:16;;;;;;;;;;;13.30;64.10;;;;;;5032018;28;19967;-59
2023/04/13 06:29:42;;;;;;;;;;;13.40;64.10;;;;;;5022387;28;19921;-61
2023/04/13 06:32:08;;;;;;;;;;;13.50;64.10;;;;;;5025104;28;19939;-62
2023/04/13 06:34:34;;;;;;;;;;;13.50;64.20;;;;;;5033582;28;19921;-59
2023/04/13 06:37:00;;;;;;;;;;;13.60;64.00;;;;;;5017601;28;19966;-59
2023/04/13 06:39:26;;;;;;;;;;;13.70;64.00;;;;;;5031479;28;20388;-60
2023/04/13 06:41:52;;;;;;;;;;;13.70;64.10;;;;;;5030095;28;20447;-59
2023/04/13 06:44:17;;;;;;;;;;;13.80;64.10;;;;;;5032583;28;19913;-59
2023/04/13 06:46:43;;;;;;;;;;;13.90;64.00;;;;;;5018124;28;20361;-59
2023/04/13 06:49:08;;;;;;;;;;;13.90;63.40;;;;;;5018587;28;19917;-62
2023/04/13 06:51:33;;;;;;;;;;;13.90;63.60;;;;;;5020060;28;20904;-59
2023/04/13 06:53:59;;;;;;;;;;;13.90;63.80;;;;;;5030351;28;20003;-59
2023/04/13 06:56:25;;;;;;;;;;;14.00;63.80;;;;;;5031265;28;20003;-60
2023/04/13 06:58:50;;;;;;;;;;;14.10;63.90;;;;;;5029399;28;19913;-59
2023/04/13 07:01:16;;;;;;;;;;;14.10;63.60;;;;;;5030777;28;19928;-59
2023/04/13 07:03:42;;;;;;;;;;;14.20;63.80;;;;;;5027749;28;19913;-59
2023/04/13 07:06:08;;;;;;;;;;;14.20;64.00;;;;;;5031641;28;19924;-59
2023/04/13 07:08:33;;;;;;;;;;;14.30;63.50;;;;;;5022487;28;20365;-60
2023/04/13 07:10:59;;;;;;;;;;;14.20;63.60;;;;;;5031985;28;19914;-59
2023/04/13 07:13:25;;;;;;;;;;;14.20;63.70;;;;;;5014419;28;19968;-59
2023/04/13 07:15:50;;;;;;;;;;;14.20;63.70;;;;;;5031582;28;19945;-59
2023/04/13 07:18:16;;;;;;;;;;;14.10;63.70;;;;;;5021708;28;19917;-58
2023/04/13 07:20:41;;;;;;;;;;;14.20;63.80;;;;;;5031385;28;19917;-60
2023/04/13 07:23:07;;;;;;;;;;;14.30;64.20;;;;;;5032267;28;19913;-59
2023/04/13 07:25:33;;;;;;;;;;;14.30;64.20;;;;;;5032027;28;19946;-59
2023/04/13 07:27:59;;;;;;;;;;;14.30;63.80;;;;;;5032205;28;19913;-59
2023/04/13 07:30:25;;;;;;;;;;;14.20;63.70;;;;;;5030321;28;19929;-59
2023/04/13 07:32:51;;;;;;;;;;;14.20;64.00;;;;;;5029647;28;19917;-59
2023/04/13 07:35:16;;;;;;;;;;;14.20;64.60;;;;;;5031473;28;19963;-59
2023/04/13 07:37:43;;;;;;;;;;;14.30;64.60;;;;;;5029918;28;20365;-59
2023/04/13 07:40:10;;;;;;;;;;;14.50;64.70;;;;;;5027922;28;20019;-59
2023/04/13 07:42:35;;;;;;;;;;;14.60;64.50;;;;;;5032002;28;19913;-58
2023/04/13 07:45:01;;;;;;;;;;;14.60;63.80;;;;;;5029641;28;20008;-58
2023/04/13 07:47:27;;;;;;;;;;;14.50;63.40;;;;;;5031967;28;19920;-59
2023/04/13 07:49:53;;;;;;;;;;;14.30;63.10;;;;;;5031252;28;20003;-59
2023/04/13 07:52:18;;;;;;;;;;;14.30;62.60;;;;;;5031504;28;19991;-59
2023/04/13 07:54:44;;;;;;;;;;;14.10;62.60;;;;;;5030530;28;19940;-59
2023/04/13 07:57:09;;;;;;;;;;;14.10;62.80;;;;;;5030829;28;19967;-59
2023/04/13 07:59:35;;;;;;;;;;;14.00;62.10;;;;;;5030559;28;19917;-59
2023/04/13 08:02:00;;;;;;;;;;;13.80;62.20;;;;;;5030322;28;19909;-59
2023/04/13 08:04:26;;;;;;;;;;;13.80;62.90;;;;;;5023061;28;19957;-61
2023/04/13 08:06:52;;;;;;;;;;;13.70;63.60;;;;;;5011797;28;20380;-61
2023/04/13 08:09:18;;;;;;;;;;;14.00;66.00;;;;;;5011698;28;19917;-59
2023/04/13 08:11:43;;;;;;;;;;;14.70;67.90;;;;;;5013251;28;19917;-59
2023/04/13 08:14:10;;;;;;;;;;;15.20;68.40;;;;;;5031689;28;20379;-59
2023/04/13 08:16:36;;;;;;;;;;;15.90;69.00;;;;;;5024754;28;19922;-59
2023/04/13 08:19:01;;;;;;;;;;;16.70;69.70;;;;;;5012026;28;19967;-59
2023/04/13 08:21:28;;;;;;;;;;;17.50;70.30;;;;;;5014478;28;19917;-60
2023/04/13 08:23:53;;;;;;;;;;;18.30;70.20;;;;;;5031852;28;19994;-59
2023/04/13 08:26:19;;;;;;;;;;;19.10;68.70;;;;;;5029181;28;19960;-59
2023/04/13 08:28:48;;;;;;;;;;;19.70;66.60;;;;;;5030665;28;20007;-60
2023/04/13 08:31:14;;;;;;;;;;;20.20;66.00;;;;;;5030154;28;19928;-60
2023/04/13 08:33:40;;;;;;;;;;;20.60;64.40;;;;;;5031524;28;19917;-60
2023/04/13 08:36:06;;;;;;;;;;;20.90;64.00;;;;;;5032448;28;19923;-60
2023/04/13 08:38:32;;;;;;;;;;;21.20;63.80;;;;;;5011355;28;20535;-60
2023/04/13 08:40:58;;;;;;;;;;;21.50;63.90;;;;;;5019914;28;19928;-60
2023/04/13 08:43:23;;;;;;;;;;;21.80;62.90;;;;;;5031496;28;19920;-62
2023/04/13 08:45:49;;;;;;;;;;;22.00;62.70;;;;;;5020432;28;20400;-60
2023/04/13 08:48:17;;;;;;;;;;;22.00;61.50;;;;;;5011666;28;20277;-63
2023/04/13 08:50:43;;;;;;;;;;;21.70;60.20;;;;;;5025514;28;20373;-60
2023/04/13 08:53:09;;;;;;;;;;;21.30;60.70;;;;;;5027855;28;19973;-60
2023/04/13 08:55:39;;;;;;;;;;;21.10;59.60;;;;;;5031155;28;19975;-60
2023/04/13 08:58:05;;;;;;;;;;;21.00;61.40;;;;;;5020131;28;19933;-60
2023/04/13 09:00:31;;;;;;;;;;;21.00;62.70;;;;;;5011380;28;20377;-60
2023/04/13 09:02:59;;;;;;;;;;;21.30;63.20;;;;;;5023952;28;19913;-60
2023/04/13 09:05:25;;;;;;;;;;;21.80;63.30;;;;;;5031151;28;19917;-60
2023/04/13 09:07:52;;;;;;;;;;;22.40;63.60;;;;;;5012126;28;20261;-60
2023/04/13 09:10:19;;;;;;;;;;;23.10;63.50;;;;;;5018300;28;19919;-60
2023/04/13 09:12:44;;;;;;;;;;;23.70;62.60;;;;;;5013724;28;19973;-60
2023/04/13 09:15:11;;;;;;;;;;;24.30;61.70;;;;;;5012030;28;19956;-60
2023/04/13 09:17:37;;;;;;;;;;;24.60;59.90;;;;;;5028959;28;19917;-59
2023/04/13 09:20:21;;;;;;;;;;;24.70;59.50;;;;;;5022369;28;20404;-62
2023/04/13 09:22:47;;;;;;;;;;;24.80;58.20;;;;;;5028892;28;20408;-60
2023/04/13 09:25:22;;;;;;;;;;;25.00;58.00;;;;;;5030950;28;19963;-60
2023/04/13 09:27:48;;;;;;;;;;;25.30;60.00;;;;;;5029738;28;19909;-60
2023/04/13 09:30:17;;;;;;;;;;;25.70;60.90;;;;;;5029422;28;20323;-60
2023/04/13 09:32:42;;;;;;;;;;;26.20;60.00;;;;;;5032560;28;20388;-60
2023/04/13 09:35:08;;;;;;;;;;;26.40;58.90;;;;;;5039554;28;19917;-60
2023/04/13 09:37:35;;;;;;;;;;;26.30;56.80;;;;;;5036634;28;19921;-60
2023/04/13 09:40:10;;;;;;;;;;;25.90;54.90;;;;;;5034094;28;19959;-60
2023/04/13 09:42:36;;;;;;;;;;;25.50;53.00;;;;;;5032456;28;19913;-59
2023/04/13 09:45:02;;;;;;;;;;;25.40;55.00;;;;;;5034239;28;19913;-59
2023/04/13 09:47:35;;;;;;;;;;;25.50;55.90;;;;;;5017226;28;19921;-59
2023/04/13 09:50:02;;;;;;;;;;;25.10;51.40;;;;;;5023886;28;19917;-59
2023/04/13 09:52:27;;;;;;;;;;;24.90;51.90;;;;;;5031509;28;19936;-59
2023/04/13 09:54:54;;;;;;;;;;;24.60;49.40;;;;;;5033608;28;20392;-63
2023/04/13 09:57:24;;;;;;;;;;;24.30;50.30;;;;;;5033113;28;19913;-59
2023/04/13 09:59:50;;;;;;;;;;;24.20;51.80;;;;;;5033861;28;19913;-59
2023/04/13 10:02:17;;;;;;;;;;;24.00;49.60;;;;;;5033662;28;19999;-59
2023/04/13 10:04:42;;;;;;;;;;;23.80;47.90;;;;;;5033874;28;19919;-59
2023/04/13 10:07:10;;;;;;;;;;;23.50;49.50;;;;;;5033515;28;19909;-59
2023/04/13 10:09:35;;;;;;;;;;;23.20;47.30;;;;;;5033637;28;19917;-59
2023/04/13 10:12:02;;;;;;;;;;;22.90;48.40;;;;;;5032938;28;19924;-59
2023/04/13 10:14:31;;;;;;;;;;;22.70;49.90;;;;;;5025697;28;19921;-59
2023/04/13 10:17:29;;;;;;;;;;;22.50;48.60;;;;;;5013469;28;19910;-59
2023/04/13 10:19:57;;;;;;;;;;;22.10;45.90;;;;;;5003997;28;19952;-59
2023/04/13 10:22:23;;;;;;;;;;;21.90;49.20;;;;;;5033588;28;19917;-59
2023/04/13 10:24:49;;;;;;;;;;;22.20;49.00;;;;;;5032720;28;20336;-59
2023/04/13 10:27:19;;;;;;;;;;;22.50;50.20;;;;;;5033498;28;20007;-59
2023/04/13 10:29:46;;;;;;;;;;;22.80;47.80;;;;;;5033450;28;19917;-60
2023/04/13 10:32:24;;;;;;;;;;;22.90;46.50;;;;;;5033163;28;19928;-59
2023/04/13 10:34:50;;;;;;;;;;;22.80;43.80;;;;;;5027179;28;19978;-59
2023/04/13 10:37:20;;;;;;;;;;;22.50;43.40;;;;;;5023497;28;20329;-59
2023/04/13 10:39:46;;;;;;;;;;;22.20;42.90;;;;;;5023745;28;19921;-60
2023/04/13 10:42:12;;;;;;;;;;;21.80;42.50;;;;;;5032699;28;20261;-61
2023/04/13 10:44:51;;;;;;;;;;;21.30;41.90;;;;;;5032268;28;19917;-59
2023/04/13 10:47:17;;;;;;;;;;;20.90;42.10;;;;;;5032877;28;19913;-59
2023/04/13 10:49:44;;;;;;;;;;;20.70;43.00;;;;;;5031667;28;19913;-59
2023/04/13 10:52:10;;;;;;;;;;;20.50;43.60;;;;;;5032812;28;19975;-59
2023/04/13 10:54:36;;;;;;;;;;;20.30;44.80;;;;;;5030563;28;20003;-59
2023/04/13 10:57:03;;;;;;;;;;;20.20;46.60;;;;;;5031366;28;19920;-59
2023/04/13 10:59:39;;;;;;;;;;;20.10;47.20;;;;;;5031876;28;19917;-59
2023/04/13 11:02:05;;;;;;;;;;;20.20;47.20;;;;;;5029541;28;19913;-59
2023/04/13 11:04:31;;;;;;;;;;;20.40;46.00;;;;;;5032854;28;20328;-59
2023/04/13 11:06:56;;;;;;;;;;;20.70;45.40;;;;;;5031783;28;19963;-59
2023/04/13 11:09:22;;;;;;;;;;;21.10;44.80;;;;;;5032606;28;19913;-59
2023/04/13 11:11:50;;;;;;;;;;;21.30;44.10;;;;;;5031194;28;20285;-59
2023/04/13 11:14:21;;;;;;;;;;;21.70;44.90;;;;;;5032132;28;19925;-60
2023/04/13 11:16:48;;;;;;;;;;;22.00;44.20;;;;;;5029073;28;20007;-59
2023/04/13 11:19:14;;;;;;;;;;;22.20;42.40;;;;;;5032744;28;19913;-59
2023/04/13 11:21:39;;;;;;;;;;;22.30;41.10;;;;;;5031670;28;19979;-59
2023/04/13 11:24:05;;;;;;;;;;;22.80;42.80;;;;;;5032582;28;19940;-60
2023/04/13 11:26:32;;;;;;;;;;;23.60;42.00;;;;;;5031044;28;20007;-60
2023/04/13 11:28:58;;;;;;;;;;;24.20;39.40;;;;;;5032617;28;19913;-59
2023/04/13 11:31:36;;;;;;;;;;;24.40;38.80;;;;;;5029059;28;20335;-59
2023/04/13 11:34:04;;;;;;;;;;;24.50;37.50;;;;;;5025773;28;19952;-59
2023/04/13 11:36:29;;;;;;;;;;;24.50;38.60;;;;;;5046073;28;20036;-59
2023/04/13 11:38:54;;;;;;;;;;;24.50;37.90;;;;;;5043667;28;20404;-59
2023/04/13 11:41:20;;;;;;;;;;;24.90;37.90;;;;;;5032014;28;19917;-59
2023/04/13 11:43:47;;;;;;;;;;;24.80;34.70;;;;;;5031120;28;19914;-59
2023/04/13 11:46:14;;;;;;;;;;;24.20;33.40;;;;;;5031778;28;19920;-59
2023/04/13 11:48:39;;;;;;;;;;;23.80;33.40;;;;;;5028328;28;19919;-59
2023/04/13 11:51:04;;;;;;;;;;;23.40;33.80;;;;;;5031523;28;20408;-59
2023/04/13 11:53:34;;;;;;;;;;;23.10;34.70;;;;;;5032169;28;20269;-59
2023/04/13 11:55:59;;;;;;;;;;;22.80;35.20;;;;;;5032757;28;19918;-59
2023/04/13 11:58:25;;;;;;;;;;;22.60;35.40;;;;;;5032216;28;20062;-59
2023/04/13 12:00:50;;;;;;;;;;;22.30;35.20;;;;;;5031409;28;19963;-59
2023/04/13 12:03:18;;;;;;;;;;;22.10;35.60;;;;;;5029632;28;20410;-59
2023/04/13 12:05:44;;;;;;;;;;;22.00;36.40;;;;;;5029912;28;19921;-59
2023/04/13 12:08:20;;;;;;;;;;;22.00;37.70;;;;;;5029734;28;19920;-59
2023/04/13 12:10:54;;;;;;;;;;;22.00;38.50;;;;;;5026411;28;19921;-59
2023/04/13 12:13:19;;;;;;;;;;;22.00;38.10;;;;;;5031335;28;20071;-58
2023/04/13 12:15:46;;;;;;;;;;;21.90;37.80;;;;;;5031046;28;20049;-59
2023/04/13 12:18:12;;;;;;;;;;;22.00;38.40;;;;;;5030819;28;20250;-60
2023/04/13 12:20:38;;;;;;;;;;;22.10;37.90;;;;;;5027435;28;19924;-59
2023/04/13 12:23:15;;;;;;;;;;;22.10;37.60;;;;;;5014005;28;20242;-59
2023/04/13 12:25:40;;;;;;;;;;;21.80;36.20;;;;;;5030978;28;19925;-59
2023/04/13 12:28:06;;;;;;;;;;;21.40;36.40;;;;;;5036050;28;19950;-59
2023/04/13 12:30:31;;;;;;;;;;;21.20;36.10;;;;;;5030151;28;19917;-59
2023/04/13 12:32:57;;;;;;;;;;;21.00;36.40;;;;;;5030515;28;19983;-59
2023/04/13 12:35:22;;;;;;;;;;;21.00;36.50;;;;;;5017980;28;19921;-59
2023/04/13 12:37:49;;;;;;;;;;;21.20;36.90;;;;;;5031134;28;19909;-59
2023/04/13 12:40:15;;;;;;;;;;;21.60;37.00;;;;;;5011546;28;20282;-61
2023/04/13 12:42:42;;;;;;;;;;;22.00;35.70;;;;;;5011360;28;19914;-60
2023/04/13 12:45:07;;;;;;;;;;;22.00;35.80;;;;;;5027346;28;19929;-60
2023/04/13 12:47:33;;;;;;;;;;;22.00;36.10;;;;;;5031466;28;20396;-61
2023/04/13 12:49:59;;;;;;;;;;;22.00;35.50;;;;;;5027896;28;19963;-60
2023/04/13 12:52:27;;;;;;;;;;;21.90;35.30;;;;;;5031495;28;19940;-61
2023/04/13 12:54:54;;;;;;;;;;;21.90;35.20;;;;;;5029990;28;19921;-61
2023/04/13 12:57:19;;;;;;;;;;;21.80;35.90;;;;;;5029924;28;20293;-61
2023/04/13 12:59:45;;;;;;;;;;;21.80;35.60;;;;;;5029783;28;19918;-61
2023/04/13 13:02:10;;;;;;;;;;;21.70;35.00;;;;;;5029866;28;19920;-61
2023/04/13 13:04:36;;;;;;;;;;;21.50;35.00;;;;;;5027702;28;19924;-61
2023/04/13 13:07:01;;;;;;;;;;;21.40;36.50;;;;;;5019405;28;19917;-60
2023/04/13 13:09:27;;;;;;;;;;;21.20;38.70;;;;;;5034675;28;19917;-60
2023/04/13 13:11:52;;;;;;;;;;;20.90;39.90;;;;;;5033401;28;19909;-60
2023/04/13 13:14:21;;;;;;;;;;;20.60;41.40;;;;;;5031563;28;19921;-60
2023/04/13 13:16:48;;;;;;;;;;;20.30;41.90;;;;;;5021404;28;20346;-60
2023/04/13 13:19:14;;;;;;;;;;;20.00;42.90;;;;;;5015415;28;20280;-60
2023/04/13 13:21:40;;;;;;;;;;;19.70;43.70;;;;;;5031768;28;19917;-60
2023/04/13 13:24:05;;;;;;;;;;;19.50;44.30;;;;;;5033597;28;19917;-60
2023/04/13 13:26:32;;;;;;;;;;;19.60;44.60;;;;;;5034395;28;20024;-60
2023/04/13 13:28:57;;;;;;;;;;;20.30;44.10;;;;;;5031799;28;19960;-60
2023/04/13 13:31:23;;;;;;;;;;;21.10;43.40;;;;;;5033358;28;19940;-60
2023/04/13 13:33:49;;;;;;;;;;;21.90;42.40;;;;;;5034157;28;19917;-60
2023/04/13 13:36:15;;;;;;;;;;;22.60;41.90;;;;;;5031064;28;19932;-61
2023/04/13 13:38:41;;;;;;;;;;;23.10;39.10;;;;;;5033826;28;19913;-60
2023/04/13 13:41:06;;;;;;;;;;;23.40;38.80;;;;;;5034016;28;19917;-61
2023/04/13 13:43:32;;;;;;;;;;;23.70;36.90;;;;;;5034413;28;19920;-61
2023/04/13 13:45:57;;;;;;;;;;;23.40;34.70;;;;;;5039571;28;19913;-61
2023/04/13 13:48:23;;;;;;;;;;;23.30;35.90;;;;;;5035054;28;19920;-62
2023/04/13 13:50:49;;;;;;;;;;;23.20;36.30;;;;;;5032753;28;20300;-61
2023/04/13 13:53:14;;;;;;;;;;;23.10;36.00;;;;;;5039904;28;20015;-61
2023/04/13 13:55:40;;;;;;;;;;;22.80;35.60;;;;;;5052516;28;19913;-61
2023/04/13 13:58:06;;;;;;;;;;;22.50;35.30;;;;;;5032162;28;20059;-62
2023/04/13 14:00:31;;;;;;;;;;;22.20;35.20;;;;;;5031812;28;19993;-61
2023/04/13 14:02:57;;;;;;;;;;;21.90;35.70;;;;;;5033820;28;19935;-62
2023/04/13 14:05:22;;;;;;;;;;;21.80;35.80;;;;;;5032710;28;19928;-62
2023/04/13 14:07:48;;;;;;;;;;;21.70;34.60;;;;;;5033927;28;19948;-61
2023/04/13 14:10:13;;;;;;;;;;;21.70;35.70;;;;;;5026792;28;19956;-61
2023/04/13 14:12:43;;;;;;;;;;;21.80;36.00;;;;;;5013766;28;19921;-61